createdAt,value
2022-11-16T00:01:44.425Z,11.02
2022-11-16T00:04:12.987Z,10.52
2022-11-16T00:06:41.205Z,9.70
2022-11-16T00:09:25.547Z,9.35
2022-11-16T00:11:54.695Z,9.65
2022-11-16T00:14:23.951Z,10.02
2022-11-16T00:16:53.259Z,9.43
2022-11-16T00:19:21.441Z,8.85
2022-11-16T00:21:49.781Z,10.18
2022-11-16T00:24:19.067Z,9.30
2022-11-16T00:26:47.500Z,9.13
2022-11-16T00:29:16.501Z,9.65
2022-11-16T00:31:45.569Z,9.43
2022-11-16T00:34:15.166Z,9.75
2022-11-16T00:36:43.213Z,9.75
2022-11-16T00:39:12.796Z,9.23
2022-11-16T00:41:40.710Z,7.90
2022-11-16T00:44:08.768Z,8.32
2022-11-16T00:46:36.742Z,8.57
2022-11-16T00:49:05.433Z,9.05
2022-11-16T00:51:35.400Z,8.50
2022-11-16T00:54:03.860Z,8.45
2022-11-16T00:56:34.062Z,8.45
2022-11-16T00:59:02.603Z,8.85
2022-11-16T01:01:30.773Z,9.65
2022-11-16T01:03:58.783Z,9.13
2022-11-16T01:06:26.662Z,8.35
2022-11-16T01:08:55.999Z,9.07
2022-11-16T01:11:42.504Z,8.25
2022-11-16T01:14:11.042Z,8.15
2022-11-16T01:16:39.054Z,7.97
2022-11-16T01:19:06.960Z,7.65
2022-11-16T01:21:35.217Z,9.10
2022-11-16T01:24:04.752Z,7.93
2022-11-16T01:26:32.654Z,7.85
2022-11-16T01:29:00.881Z,8.88
2022-11-16T01:31:32.918Z,7.60
2022-11-16T01:34:03.471Z,8.82
2022-11-16T01:36:31.586Z,9.88
2022-11-16T01:39:02.043Z,9.45
2022-11-16T01:41:36.174Z,9.32
2022-11-16T01:44:07.946Z,9.10
2022-11-16T01:46:45.504Z,10.18
2022-11-16T01:49:19.424Z,8.60
2022-11-16T01:51:51.050Z,9.68
2022-11-16T01:54:19.954Z,8.32
2022-11-16T01:57:02.033Z,9.98
2022-11-16T01:59:37.670Z,8.77
2022-11-16T02:02:07.137Z,8.02
2022-11-16T02:04:35.964Z,8.90
2022-11-16T02:07:14.683Z,8.85
2022-11-16T02:09:54.269Z,6.85
2022-11-16T02:15:16.684Z,6.30
2022-11-16T02:17:53.298Z,9.60
2022-11-16T02:20:46.492Z,8.85
2022-11-16T02:23:38.823Z,10.02
2022-11-16T02:26:18.712Z,8.82
2022-11-16T02:28:57.391Z,8.43
2022-11-16T02:31:30.633Z,10.27
2022-11-16T02:34:00.481Z,9.30
2022-11-16T02:36:28.484Z,10.10
2022-11-16T02:39:01.569Z,9.95
2022-11-16T02:41:33.707Z,9.15
2022-11-16T02:44:05.465Z,8.65
2022-11-16T02:46:38.311Z,9.00
2022-11-16T02:49:12.245Z,9.68
2022-11-16T02:51:42.073Z,10.18
2022-11-16T02:54:13.061Z,9.73
2022-11-16T02:56:51.803Z,8.90
2022-11-16T02:59:26.401Z,8.77
2022-11-16T03:02:01.227Z,8.82
2022-11-16T03:04:33.209Z,9.27
2022-11-16T03:07:04.739Z,9.20
2022-11-16T03:09:35.359Z,8.40
2022-11-16T03:12:08.278Z,9.20
2022-11-16T03:14:39.241Z,10.60
2022-11-16T03:17:11.604Z,11.13
2022-11-16T03:19:44.371Z,9.00
2022-11-16T03:22:15.307Z,10.00
2022-11-16T03:24:44.525Z,10.27
2022-11-16T03:27:18.452Z,11.68
2022-11-16T03:29:50.670Z,10.75
2022-11-16T03:32:26.450Z,11.45
2022-11-16T03:34:58.739Z,10.88
2022-11-16T03:37:29.358Z,12.18
2022-11-16T03:40:01.012Z,10.80
2022-11-16T03:42:31.689Z,11.43
2022-11-16T03:44:59.913Z,10.80
2022-11-16T03:47:29.185Z,10.95
2022-11-16T03:49:57.050Z,12.68
2022-11-16T03:52:27.127Z,8.90
2022-11-16T03:54:55.326Z,10.93
2022-11-16T03:57:25.467Z,9.18
2022-11-16T03:59:56.994Z,12.00
2022-11-16T04:02:24.859Z,11.85
2022-11-16T04:05:14.996Z,11.30
2022-11-16T04:11:02.575Z,11.60
2022-11-16T04:13:51.517Z,12.20
2022-11-16T04:16:38.060Z,11.98
2022-11-16T04:19:27.077Z,11.63
2022-11-16T04:22:15.659Z,12.65
2022-11-16T04:24:46.727Z,11.20
2022-11-16T04:27:33.045Z,12.05
2022-11-16T04:30:02.637Z,9.85
2022-11-16T04:32:49.638Z,12.80
2022-11-16T04:35:35.479Z,11.77
2022-11-16T04:38:05.482Z,11.88
2022-11-16T04:40:35.520Z,9.18
2022-11-16T04:43:03.903Z,13.02
2022-11-16T04:45:56.140Z,12.23
2022-11-16T04:48:27.895Z,13.43
2022-11-16T04:50:57.181Z,11.75
2022-11-16T04:53:27.944Z,10.02
2022-11-16T04:56:16.364Z,11.35
2022-11-16T04:58:44.254Z,10.48
2022-11-16T05:01:12.212Z,8.68
2022-11-16T05:03:40.038Z,10.52
2022-11-16T05:06:08.626Z,11.43
2022-11-16T05:08:38.321Z,10.73
2022-11-16T05:11:06.879Z,11.20
2022-11-16T05:13:35.081Z,10.18
2022-11-16T05:16:03.515Z,10.40
2022-11-16T05:18:32.678Z,9.95
2022-11-16T05:21:02.651Z,7.50
2022-11-16T05:23:53.677Z,7.55
2022-11-16T05:26:25.341Z,9.15
2022-11-16T05:28:54.775Z,9.10
2022-11-16T05:31:22.631Z,10.25
2022-11-16T05:33:50.699Z,9.52
2022-11-16T05:36:19.911Z,9.48
2022-11-16T05:38:47.849Z,9.48
2022-11-16T05:41:16.024Z,9.32
2022-11-16T05:43:45.453Z,9.88
2022-11-16T05:46:20.370Z,8.40
2022-11-16T05:48:49.023Z,8.38
2022-11-16T05:51:17.240Z,9.70
2022-11-16T05:53:45.179Z,9.48
2022-11-16T05:56:17.859Z,10.27
2022-11-16T05:58:47.944Z,9.27
2022-11-16T06:01:16.116Z,8.57
2022-11-16T06:03:44.040Z,10.48
2022-11-16T06:06:12.341Z,10.15
2022-11-16T06:08:40.230Z,9.07
2022-11-16T06:11:12.173Z,9.90
2022-11-16T06:13:40.674Z,9.50
2022-11-16T06:16:10.487Z,8.85
2022-11-16T06:18:39.338Z,9.35
2022-11-16T06:21:08.099Z,8.18
2022-11-16T06:23:36.032Z,8.27
2022-11-16T06:26:04.656Z,6.35
2022-11-16T06:28:34.596Z,8.27
2022-11-16T06:31:02.720Z,9.43
2022-11-16T06:33:36.425Z,7.90
2022-11-16T06:36:09.410Z,7.53
2022-11-16T06:38:38.521Z,7.72
2022-11-16T06:41:06.684Z,7.32
2022-11-16T06:43:40.425Z,7.10
2022-11-16T06:46:08.666Z,7.18
2022-11-16T06:48:38.066Z,7.45
2022-11-16T06:51:10.768Z,7.30
2022-11-16T06:53:38.815Z,6.72
2022-11-16T06:56:08.072Z,7.72
2022-11-16T06:58:44.761Z,5.97
2022-11-16T07:01:15.145Z,5.70
2022-11-16T07:03:47.382Z,5.10
2022-11-16T07:06:15.855Z,7.90
2022-11-16T07:08:46.490Z,7.07
2022-11-16T07:11:17.628Z,7.25
2022-11-16T07:13:45.515Z,6.55
2022-11-16T07:16:14.641Z,6.75
2022-11-16T07:18:50.797Z,7.15
2022-11-16T07:21:19.141Z,4.97
2022-11-16T07:23:47.010Z,5.40
2022-11-16T07:26:20.000Z,6.65
2022-11-16T07:29:02.393Z,5.45
2022-11-16T07:31:31.466Z,5.85
2022-11-16T07:34:36.229Z,5.78
2022-11-16T07:37:08.007Z,5.38
2022-11-16T07:39:35.929Z,5.72
2022-11-16T07:42:11.428Z,4.78
2022-11-16T07:45:02.459Z,5.78
2022-11-16T07:47:37.772Z,5.55
2022-11-16T07:50:10.848Z,5.18
2022-11-16T07:52:38.880Z,5.53
2022-11-16T07:55:10.501Z,5.20
2022-11-16T07:57:38.413Z,5.57
2022-11-16T08:00:10.287Z,5.35
2022-11-16T08:02:56.932Z,4.60
2022-11-16T08:05:26.210Z,4.40
2022-11-16T08:07:55.236Z,4.03
2022-11-16T08:10:25.941Z,4.82
2022-11-16T08:12:55.050Z,4.43
2022-11-16T08:15:24.915Z,4.15
2022-11-16T08:17:53.163Z,4.68
2022-11-16T08:20:21.077Z,3.28
2022-11-16T08:22:52.336Z,3.90
2022-11-16T08:25:20.395Z,4.18
2022-11-16T08:27:48.474Z,4.03
2022-11-16T08:30:18.870Z,4.20
2022-11-16T08:32:46.783Z,3.83
2022-11-16T08:35:16.269Z,4.22
2022-11-16T08:37:45.698Z,3.88
2022-11-16T08:40:15.704Z,3.60
2022-11-16T08:42:44.484Z,2.95
2022-11-16T08:45:13.450Z,3.75
2022-11-16T08:47:42.361Z,2.72
2022-11-16T08:50:10.751Z,3.10
2022-11-16T08:52:39.537Z,3.65
2022-11-16T08:55:08.202Z,3.05
2022-11-16T08:57:37.728Z,3.47
2022-11-16T09:00:11.180Z,3.05
2022-11-16T09:02:39.153Z,3.22
2022-11-16T09:05:08.101Z,3.30
2022-11-16T09:07:35.992Z,3.30
2022-11-16T09:10:04.179Z,3.30
2022-11-16T09:12:31.989Z,2.88
2022-11-16T09:15:01.227Z,2.85
2022-11-16T09:17:29.312Z,2.20
2022-11-16T09:19:57.125Z,3.35
2022-11-16T09:22:24.968Z,3.53
2022-11-16T09:24:52.869Z,2.72
2022-11-16T09:27:20.703Z,3.17
2022-11-16T09:29:48.544Z,3.20
2022-11-16T09:32:17.796Z,2.83
2022-11-16T09:34:45.653Z,3.08
2022-11-16T09:37:13.500Z,3.22
2022-11-16T09:39:42.614Z,2.78
2022-11-16T09:42:34.539Z,2.60
2022-11-16T09:45:06.252Z,2.28
2022-11-16T09:47:42.239Z,2.28
2022-11-16T09:50:20.486Z,1.98
2022-11-16T09:52:50.273Z,1.90
2022-11-16T09:55:25.742Z,1.98
2022-11-16T09:57:55.564Z,1.92
2022-11-16T10:00:24.804Z,1.48
2022-11-16T10:03:00.569Z,2.40
2022-11-16T10:05:31.982Z,2.00
2022-11-16T10:08:06.063Z,2.30
2022-11-16T10:10:37.970Z,2.88
2022-11-16T10:13:15.725Z,2.47
2022-11-16T10:15:51.654Z,2.20
2022-11-16T10:18:35.299Z,2.67
2022-11-16T10:21:14.001Z,2.80
2022-11-16T10:23:51.678Z,2.15
2022-11-16T10:26:27.022Z,2.17
2022-11-16T10:29:05.557Z,1.80
2022-11-16T10:31:48.590Z,2.10
2022-11-16T10:34:20.557Z,2.20
2022-11-16T10:36:48.442Z,2.03
2022-11-16T10:39:19.613Z,1.48
2022-11-16T10:41:50.352Z,2.05
2022-11-16T10:44:21.440Z,2.58
2022-11-16T10:46:57.958Z,2.10
2022-11-16T10:49:31.452Z,2.15
2022-11-16T10:51:59.402Z,2.15
2022-11-16T10:54:27.259Z,2.70
2022-11-16T10:57:13.806Z,2.78
2022-11-16T10:59:43.781Z,2.60
2022-11-16T11:02:32.654Z,2.63
2022-11-16T11:05:07.916Z,3.00
2022-11-16T11:07:39.719Z,3.28
2022-11-16T11:10:24.190Z,3.10
2022-11-16T11:13:17.182Z,3.15
2022-11-16T11:15:45.654Z,3.10
2022-11-16T11:18:19.051Z,3.42
2022-11-16T11:20:50.278Z,3.45
2022-11-16T11:23:19.869Z,2.95
2022-11-16T11:25:53.516Z,3.72
2022-11-16T11:28:24.362Z,2.80
2022-11-16T11:30:54.774Z,4.13
2022-11-16T11:33:23.816Z,3.58
2022-11-16T11:36:02.072Z,4.70
2022-11-16T11:38:30.528Z,4.13
2022-11-16T11:41:00.232Z,4.13
2022-11-16T11:43:29.468Z,4.88
2022-11-16T11:46:05.241Z,4.95
2022-11-16T11:48:39.206Z,4.55
2022-11-16T11:51:14.969Z,4.57
2022-11-16T11:53:54.581Z,4.10
2022-11-16T11:56:22.621Z,4.25
2022-11-16T11:58:51.611Z,4.53
2022-11-16T12:01:34.616Z,4.38
2022-11-16T12:04:29.578Z,4.72
2022-11-16T12:07:04.732Z,5.05
2022-11-16T12:09:37.546Z,4.60
2022-11-16T12:12:20.548Z,3.78
2022-11-16T12:14:56.197Z,5.05
2022-11-16T12:17:30.868Z,4.55
2022-11-16T12:20:16.593Z,5.20
2022-11-16T12:23:08.758Z,4.70
2022-11-16T12:25:43.907Z,4.95
2022-11-16T12:28:22.192Z,5.47
2022-11-16T12:30:58.734Z,3.90
2022-11-16T12:33:36.317Z,3.90
2022-11-16T12:36:10.281Z,4.45
2022-11-16T12:38:51.877Z,3.92
2022-11-16T12:41:40.409Z,4.05
2022-11-16T12:44:11.512Z,4.20
2022-11-16T12:46:47.817Z,4.25
2022-11-16T12:49:36.951Z,3.88
2022-11-16T12:52:15.061Z,4.47
2022-11-16T12:58:00.404Z,4.45
2022-11-16T13:00:30.037Z,4.60
2022-11-16T13:03:12.609Z,4.90
2022-11-16T13:05:53.638Z,4.43
2022-11-16T13:08:33.878Z,4.10
2022-11-16T13:11:06.695Z,3.78
2022-11-16T13:13:51.363Z,4.13
2022-11-16T13:16:21.517Z,3.67
2022-11-16T13:18:49.721Z,3.88
2022-11-16T13:21:25.890Z,4.00
2022-11-16T13:24:08.573Z,4.25
2022-11-16T13:26:42.796Z,4.03
2022-11-16T13:29:16.745Z,4.13
2022-11-16T13:31:49.723Z,3.83
2022-11-16T13:36:47.828Z,3.47
2022-11-16T13:39:21.938Z,3.22
2022-11-16T13:41:53.087Z,2.78
2022-11-16T13:44:28.052Z,2.50
2022-11-16T13:46:59.621Z,3.33
2022-11-16T13:49:32.053Z,2.92
2022-11-16T13:52:21.330Z,3.10
2022-11-16T13:54:53.424Z,2.70
2022-11-16T13:57:25.914Z,3.22
2022-11-16T14:00:09.016Z,2.78
2022-11-16T14:05:07.692Z,2.88
2022-11-16T14:07:43.040Z,3.17
2022-11-16T14:10:12.099Z,3.00
2022-11-16T14:12:52.741Z,2.65
2022-11-16T14:15:21.938Z,2.72
2022-11-16T14:17:51.466Z,2.85
2022-11-16T14:20:31.296Z,2.78
2022-11-16T14:23:11.309Z,3.08
2022-11-16T14:25:41.814Z,2.28
2022-11-16T14:28:32.933Z,2.08
2022-11-16T14:31:10.414Z,2.60
2022-11-16T14:33:38.903Z,3.00
2022-11-16T14:36:09.609Z,2.22
2022-11-16T14:38:39.218Z,2.50
2022-11-16T14:41:08.083Z,2.65
2022-11-16T14:43:41.499Z,2.50
2022-11-16T14:46:14.639Z,2.42
2022-11-16T14:48:45.002Z,2.58
2022-11-16T14:51:15.503Z,2.45
2022-11-16T14:53:51.734Z,3.13
2022-11-16T14:56:20.408Z,3.33
2022-11-16T14:58:53.915Z,3.25
2022-11-16T15:01:24.818Z,3.33
2022-11-16T15:03:59.568Z,3.05
2022-11-16T15:06:27.893Z,3.08
2022-11-16T15:08:59.197Z,3.03
2022-11-16T15:11:49.248Z,3.20
2022-11-16T15:14:21.827Z,3.03
2022-11-16T15:16:51.910Z,2.80
2022-11-16T15:19:20.590Z,3.20
2022-11-16T15:21:53.210Z,3.30
2022-11-16T15:24:30.875Z,2.63
2022-11-16T15:27:10.312Z,3.65
2022-11-16T15:29:39.957Z,3.35
2022-11-16T15:32:08.066Z,3.20
2022-11-16T15:34:39.035Z,2.80
2022-11-16T15:37:06.950Z,3.70
2022-11-16T15:39:35.503Z,3.42
2022-11-16T15:42:04.463Z,3.55
2022-11-16T15:44:32.953Z,3.92
2022-11-16T15:47:03.770Z,3.22
2022-11-16T15:49:33.550Z,3.22
2022-11-16T15:52:02.178Z,3.30
2022-11-16T15:54:51.977Z,4.22
2022-11-16T15:57:20.583Z,3.60
2022-11-16T15:59:49.844Z,3.60
2022-11-16T16:02:20.540Z,3.75
2022-11-16T16:04:48.701Z,3.70
2022-11-16T16:07:38.753Z,3.78
2022-11-16T16:10:14.953Z,3.60
2022-11-16T16:12:48.608Z,3.60
2022-11-16T16:15:24.756Z,3.38
2022-11-16T16:17:55.069Z,3.42
2022-11-16T16:20:24.232Z,3.60
2022-11-16T16:22:52.519Z,3.53
2022-11-16T16:25:28.173Z,3.20
2022-11-16T16:27:56.045Z,3.92
2022-11-16T16:30:24.180Z,2.95
2022-11-16T16:32:52.166Z,3.33
2022-11-16T16:35:23.064Z,2.70
2022-11-16T16:37:52.465Z,2.83
2022-11-16T16:40:20.402Z,3.28
2022-11-16T16:42:48.615Z,2.70
2022-11-16T16:45:20.204Z,2.13
2022-11-16T16:47:48.212Z,2.53
2022-11-16T16:50:16.810Z,2.45
2022-11-16T16:52:46.227Z,2.03
2022-11-16T16:55:14.177Z,2.13
2022-11-16T16:57:42.103Z,2.33
2022-11-16T17:00:11.626Z,2.20
2022-11-16T17:02:40.379Z,1.85
2022-11-16T17:05:09.220Z,1.80
2022-11-16T17:07:37.211Z,1.42
2022-11-16T17:10:07.387Z,1.98
2022-11-16T17:12:35.382Z,1.25
2022-11-16T17:15:03.589Z,1.48
2022-11-16T17:17:32.738Z,1.48
2022-11-16T17:20:00.729Z,1.45
2022-11-16T17:22:28.622Z,1.67
2022-11-16T17:24:56.503Z,1.92
2022-11-16T17:27:25.792Z,1.60
2022-11-16T17:29:53.621Z,1.27
2022-11-16T17:32:21.541Z,1.33
2022-11-16T17:34:49.373Z,1.75
2022-11-16T17:37:17.382Z,1.30
2022-11-16T17:39:45.346Z,1.60
2022-11-16T17:42:13.337Z,1.70
2022-11-16T17:44:42.780Z,1.30
2022-11-16T17:47:10.724Z,1.27
2022-11-16T17:49:38.574Z,1.25
2022-11-16T17:52:07.327Z,1.10
2022-11-16T17:54:35.211Z,1.30
2022-11-16T17:57:03.102Z,1.70
2022-11-16T17:59:31.033Z,1.45
2022-11-16T18:02:00.381Z,1.88
2022-11-16T18:04:28.630Z,1.73
2022-11-16T18:06:56.884Z,1.35
2022-11-16T18:09:24.872Z,1.23
2022-11-16T18:11:52.754Z,1.95
2022-11-16T18:14:20.582Z,1.48
2022-11-16T18:16:48.628Z,1.00
2022-11-16T18:19:19.457Z,1.30
2022-11-16T18:21:48.130Z,1.52
2022-11-16T18:24:16.100Z,1.63
2022-11-16T18:26:44.121Z,1.23
2022-11-16T18:29:15.738Z,1.30
2022-11-16T18:31:43.776Z,0.75
2022-11-16T18:34:13.349Z,1.10
2022-11-16T18:36:42.651Z,1.30
2022-11-16T18:39:10.440Z,1.15
2022-11-16T18:41:48.585Z,1.20
2022-11-16T18:44:19.513Z,1.42
2022-11-16T18:46:47.374Z,1.40
2022-11-16T18:49:15.401Z,1.30
2022-11-16T18:51:44.597Z,1.00
2022-11-16T18:54:12.816Z,1.17
2022-11-16T18:56:40.706Z,1.10
2022-11-16T18:59:08.607Z,0.80
2022-11-16T19:01:36.600Z,1.10
2022-11-16T19:04:04.721Z,1.05
2022-11-16T19:06:33.310Z,0.90
2022-11-16T19:09:04.312Z,1.63
2022-11-16T19:11:32.389Z,1.50
2022-11-16T19:14:03.683Z,1.10
2022-11-16T19:16:31.999Z,1.23
2022-11-16T19:19:01.277Z,1.25
2022-11-16T19:21:29.452Z,1.10
2022-11-16T19:23:57.960Z,1.40
2022-11-16T19:26:29.095Z,1.38
2022-11-16T19:28:57.283Z,1.27
2022-11-16T19:31:26.797Z,1.00
2022-11-16T19:33:55.993Z,1.40
2022-11-16T19:36:24.469Z,1.27
2022-11-16T19:38:52.860Z,1.40
2022-11-16T19:41:22.374Z,1.50
2022-11-16T19:43:56.884Z,1.60
2022-11-16T19:46:25.430Z,1.70
2022-11-16T19:48:53.720Z,1.30
2022-11-16T19:51:23.229Z,1.33
2022-11-16T19:53:51.309Z,1.70
2022-11-16T19:56:20.380Z,1.50
2022-11-16T19:58:48.289Z,1.60
2022-11-16T20:01:19.150Z,1.52
2022-11-16T20:03:47.492Z,1.33
2022-11-16T20:06:16.455Z,1.30
2022-11-16T20:08:48.529Z,1.20
2022-11-16T20:11:17.800Z,1.20
2022-11-16T20:13:45.689Z,1.33
2022-11-16T20:16:14.495Z,1.30
2022-11-16T20:18:44.661Z,1.50
2022-11-16T20:21:14.944Z,1.63
2022-11-16T20:23:44.570Z,1.35
2022-11-16T20:26:13.850Z,1.25
2022-11-16T20:28:42.579Z,1.52
2022-11-16T20:31:11.823Z,1.60
2022-11-16T20:33:39.852Z,1.92
2022-11-16T20:36:11.083Z,1.65
2022-11-16T20:38:40.026Z,1.80
2022-11-16T20:41:12.728Z,1.50
2022-11-16T20:43:40.996Z,1.25
2022-11-16T20:46:09.350Z,1.50
2022-11-16T20:48:37.728Z,1.25
2022-11-16T20:51:06.124Z,1.35
2022-11-16T20:53:35.849Z,1.60
2022-11-16T20:56:04.704Z,1.63
2022-11-16T20:58:33.132Z,1.42
2022-11-16T21:01:01.754Z,1.92
2022-11-16T21:03:29.961Z,1.58
2022-11-16T21:05:58.164Z,1.65
2022-11-16T21:08:27.349Z,1.60
2022-11-16T21:10:57.111Z,1.42
2022-11-16T21:13:42.367Z,1.00
2022-11-16T21:16:12.152Z,1.00
2022-11-16T21:18:40.458Z,1.85
2022-11-16T21:21:09.471Z,1.77
2022-11-16T21:23:38.993Z,1.85
2022-11-16T21:26:09.348Z,1.40
2022-11-16T21:28:37.278Z,1.80
2022-11-16T21:31:06.557Z,1.77
2022-11-16T21:33:34.766Z,1.50
2022-11-16T21:36:05.020Z,1.75
2022-11-16T21:38:33.896Z,1.60
2022-11-16T21:41:01.986Z,1.70
2022-11-16T21:43:31.696Z,1.98
2022-11-16T21:46:02.538Z,1.83
2022-11-16T21:48:33.121Z,1.92
2022-11-16T21:51:01.720Z,1.63
2022-11-16T21:53:29.667Z,1.60
2022-11-16T21:55:57.658Z,1.92
2022-11-16T21:58:25.754Z,1.60
2022-11-16T22:00:57.765Z,1.67
2022-11-16T22:03:26.512Z,1.83
2022-11-16T22:06:12.400Z,1.70
2022-11-16T22:08:40.652Z,1.63
2022-11-16T22:11:08.880Z,1.67
2022-11-16T22:13:37.310Z,2.03
2022-11-16T22:16:08.526Z,1.80
2022-11-16T22:18:36.933Z,1.50
2022-11-16T22:21:05.188Z,1.95
2022-11-16T22:23:33.253Z,1.73
2022-11-16T22:26:02.997Z,1.55
2022-11-16T22:28:31.119Z,1.80
2022-11-16T22:31:02.932Z,2.00
2022-11-16T22:33:33.077Z,1.80
2022-11-16T22:36:01.543Z,1.65
2022-11-16T22:38:29.422Z,2.00
2022-11-16T22:40:58.099Z,2.17
2022-11-16T22:43:27.643Z,1.92
2022-11-16T22:45:58.468Z,1.67
2022-11-16T22:48:30.873Z,1.77
2022-11-16T22:51:08.107Z,1.95
2022-11-16T22:53:36.481Z,1.92
2022-11-16T22:56:06.602Z,2.28
2022-11-16T22:58:34.543Z,2.17
2022-11-16T23:01:02.680Z,2.10
2022-11-16T23:03:30.996Z,1.90
2022-11-16T23:05:59.568Z,2.00
2022-11-16T23:08:29.018Z,2.10
2022-11-16T23:11:18.880Z,2.53
2022-11-16T23:14:04.659Z,2.17
2022-11-16T23:16:32.488Z,2.03
2022-11-16T23:19:00.599Z,2.00
2022-11-16T23:21:46.085Z,2.00
2022-11-16T23:24:34.044Z,2.10
2022-11-16T23:27:21.161Z,1.70
2022-11-16T23:29:49.214Z,2.03
2022-11-16T23:32:17.022Z,1.88
2022-11-16T23:34:44.862Z,2.20
2022-11-16T23:37:12.736Z,2.20
2022-11-16T23:39:42.035Z,2.47
2022-11-16T23:42:28.189Z,2.30
2022-11-16T23:44:56.025Z,1.60
2022-11-16T23:47:24.150Z,1.65
2022-11-16T23:49:52.063Z,1.63
2022-11-16T23:52:19.881Z,1.33
2022-11-16T23:54:49.098Z,1.75
2022-11-16T23:57:16.942Z,2.33
2022-11-16T23:59:44.766Z,1.73
